Time;durP1;ratioP1;P1;durP2;ratioP2;P2;SDS_P1;SDS_P2;PMS_P1;PMS_P2;Temp;Humidity;BMP_temperature;BMP_pressure;BME280_temperature;BME280_humidity;BME280_pressure;Samples;Min_cycle;Max_cycle;Signal;HPM_P1;HPM_P2
2023/04/17 00:00:31;;;;;;;5.72;5.13;;;;;;;;;;12927843;23;20364;-94
2023/04/17 00:05:33;;;;;;;6.50;4.95;;;;;;;;;;12932456;23;20371;-94
2023/04/17 00:10:37;;;;;;;5.43;4.73;;;;;;;;;;12932038;23;20388;-94
2023/04/17 00:15:39;;;;;;;6.63;5.15;;;;;;;;;;12927852;23;20423;-94
2023/04/17 00:20:40;;;;;;;5.60;5.00;;;;;;;;;;12922279;22;20379;-94
2023/04/17 00:25:44;;;;;;;5.50;4.70;;;;;;;;;;12922195;23;20836;-94
2023/04/17 00:30:46;;;;;;;5.97;5.00;;;;;;;;;;12925415;23;20410;-94
2023/04/17 00:35:47;;;;;;;7.32;5.15;;;;;;;;;;12924696;23;20362;-94
2023/04/17 00:40:51;;;;;;;5.13;4.47;;;;;;;;;;12923617;23;20365;-94
2023/04/17 00:45:54;;;;;;;5.18;4.45;;;;;;;;;;12927152;23;20388;-94
2023/04/17 00:51:00;;;;;;;5.68;4.70;;;;;;;;;;12927340;23;20389;-95
2023/04/17 00:56:06;;;;;;;5.88;4.90;;;;;;;;;;12926499;23;20364;-93
2023/04/17 01:01:08;;;;;;;6.25;4.80;;;;;;;;;;12926605;23;20447;-94
2023/04/17 01:06:10;;;;;;;5.75;4.82;;;;;;;;;;12925697;23;20360;-94
2023/04/17 01:11:13;;;;;;;5.47;4.50;;;;;;;;;;12924176;23;20456;-94
2023/04/17 01:16:15;;;;;;;5.22;4.45;;;;;;;;;;12926491;23;20372;-93
2023/04/17 01:21:17;;;;;;;4.80;4.15;;;;;;;;;;12950276;22;20374;-85
2023/04/17 01:26:22;;;;;;;5.23;3.97;;;;;;;;;;12979792;22;20421;-84
2023/04/17 01:31:24;;;;;;;5.13;3.92;;;;;;;;;;12979183;22;20406;-84
2023/04/17 01:36:27;;;;;;;4.23;3.80;;;;;;;;;;12978773;22;20366;-85
2023/04/17 01:41:30;;;;;;;4.85;3.90;;;;;;;;;;12978840;22;20370;-83
2023/04/17 01:46:32;;;;;;;5.30;4.18;;;;;;;;;;12979752;22;20362;-84
2023/04/17 01:51:34;;;;;;;4.80;4.10;;;;;;;;;;12979015;22;20880;-84
2023/04/17 01:56:37;;;;;;;4.80;4.32;;;;;;;;;;12979362;22;20363;-81
2023/04/17 02:01:39;;;;;;;5.05;4.05;;;;;;;;;;12979653;22;20447;-81
2023/04/17 02:06:41;;;;;;;5.18;3.97;;;;;;;;;;12979702;22;20585;-84
2023/04/17 02:11:44;;;;;;;5.10;3.60;;;;;;;;;;12978539;22;20386;-84
2023/04/17 02:16:46;;;;;;;4.78;3.80;;;;;;;;;;12978338;22;20409;-84
2023/04/17 02:21:48;;;;;;;5.00;3.83;;;;;;;;;;12978596;22;20366;-84
2023/04/17 02:26:51;;;;;;;5.70;4.07;;;;;;;;;;12978469;22;20359;-84
2023/04/17 02:31:53;;;;;;;4.82;4.00;;;;;;;;;;12978337;22;20378;-84
2023/04/17 02:36:55;;;;;;;4.50;3.90;;;;;;;;;;12977050;22;20541;-83
2023/04/17 02:41:58;;;;;;;4.35;3.83;;;;;;;;;;12977603;22;20450;-84
2023/04/17 02:47:00;;;;;;;5.28;3.58;;;;;;;;;;12978503;22;21021;-84
2023/04/17 02:52:02;;;;;;;3.80;3.07;;;;;;;;;;12978902;22;20389;-82
2023/04/17 02:57:05;;;;;;;3.67;3.22;;;;;;;;;;12978169;22;20683;-84
2023/04/17 03:02:07;;;;;;;3.95;3.40;;;;;;;;;;12978088;22;20437;-84
2023/04/17 03:07:09;;;;;;;3.90;3.50;;;;;;;;;;12977848;22;20385;-84
2023/04/17 03:12:12;;;;;;;3.63;3.33;;;;;;;;;;12978070;22;20789;-84
2023/04/17 03:17:15;;;;;;;4.40;3.47;;;;;;;;;;12978967;22;20449;-84
2023/04/17 03:22:16;;;;;;;3.78;3.22;;;;;;;;;;12977929;22;20420;-81
2023/04/17 03:27:23;;;;;;;3.60;3.30;;;;;;;;;;12977706;22;20362;-84
2023/04/17 03:32:25;;;;;;;4.53;3.47;;;;;;;;;;12982291;22;20413;-84
2023/04/17 03:37:27;;;;;;;3.80;3.38;;;;;;;;;;12982139;22;20363;-84
2023/04/17 03:42:30;;;;;;;4.18;3.72;;;;;;;;;;12982607;22;20429;-85
2023/04/17 03:47:32;;;;;;;3.92;3.50;;;;;;;;;;12978601;22;20386;-84
2023/04/17 03:52:34;;;;;;;4.50;3.58;;;;;;;;;;12981401;22;20389;-83
2023/04/17 03:57:37;;;;;;;4.00;3.60;;;;;;;;;;12980915;22;20369;-83
2023/04/17 04:02:39;;;;;;;3.38;3.08;;;;;;;;;;12981107;22;20354;-83
2023/04/17 04:07:40;;;;;;;4.65;3.40;;;;;;;;;;12980850;22;20779;-84
2023/04/17 04:12:44;;;;;;;5.27;3.20;;;;;;;;;;12980610;22;20444;-84
2023/04/17 04:17:45;;;;;;;3.30;3.00;;;;;;;;;;12981729;22;20374;-84
2023/04/17 04:22:47;;;;;;;5.90;3.83;;;;;;;;;;12980131;22;20398;-83
2023/04/17 04:27:50;;;;;;;5.67;3.30;;;;;;;;;;12981081;22;20365;-83
2023/04/17 04:32:52;;;;;;;3.73;3.00;;;;;;;;;;12980013;22;20839;-84
2023/04/17 04:38:00;;;;;;;4.32;3.30;;;;;;;;;;12979993;22;20389;-84
2023/04/17 04:43:04;;;;;;;3.80;3.40;;;;;;;;;;12979898;22;20425;-84
2023/04/17 04:48:06;;;;;;;4.20;3.70;;;;;;;;;;12980362;22;20367;-83
2023/04/17 04:53:08;;;;;;;3.45;3.15;;;;;;;;;;12979641;22;20386;-84
2023/04/17 04:58:11;;;;;;;5.53;3.63;;;;;;;;;;12979952;22;20842;-84
2023/04/17 05:03:13;;;;;;;4.60;3.30;;;;;;;;;;12979087;22;20690;-84
2023/04/17 05:08:15;;;;;;;4.63;3.75;;;;;;;;;;12979741;22;20367;-84
2023/04/17 05:13:18;;;;;;;4.20;3.80;;;;;;;;;;12977140;22;20405;-84
2023/04/17 05:18:20;;;;;;;4.40;3.85;;;;;;;;;;12977673;22;20370;-84
2023/04/17 05:23:21;;;;;;;3.60;3.00;;;;;;;;;;12976814;22;20394;-84
2023/04/17 05:28:26;;;;;;;3.75;3.38;;;;;;;;;;12977864;22;20481;-83
2023/04/17 05:33:27;;;;;;;4.60;3.25;;;;;;;;;;12975134;22;20758;-84
2023/04/17 05:38:30;;;;;;;4.55;3.47;;;;;;;;;;12976978;22;20838;-83
2023/04/17 05:43:34;;;;;;;4.50;3.22;;;;;;;;;;12976338;22;20417;-84
2023/04/17 05:48:36;;;;;;;5.60;3.50;;;;;;;;;;12977397;22;20363;-83
2023/04/17 05:53:38;;;;;;;4.93;2.92;;;;;;;;;;12976354;22;20471;-83
2023/04/17 05:58:41;;;;;;;4.57;3.55;;;;;;;;;;12975699;22;20367;-83
2023/04/17 06:03:43;;;;;;;3.67;3.10;;;;;;;;;;12978020;22;20726;-84
2023/04/17 06:08:45;;;;;;;5.05;3.42;;;;;;;;;;12978682;22;20413;-83
2023/04/17 06:13:48;;;;;;;4.78;3.00;;;;;;;;;;12969573;22;20383;-83
2023/04/17 06:18:50;;;;;;;7.10;3.17;;;;;;;;;;12978430;22;20378;-83
2023/04/17 06:23:52;;;;;;;4.88;3.03;;;;;;;;;;12976547;22;20438;-83
2023/04/17 06:28:55;;;;;;;4.22;3.00;;;;;;;;;;12977411;22;20397;-83
2023/04/17 06:33:57;;;;;;;7.13;3.57;;;;;;;;;;12972958;22;20385;-83
2023/04/17 06:38:59;;;;;;;7.05;3.75;;;;;;;;;;12970369;22;20378;-83
2023/04/17 06:44:02;;;;;;;4.32;3.70;;;;;;;;;;12970584;22;20438;-83
2023/04/17 06:49:04;;;;;;;4.88;4.10;;;;;;;;;;12970320;22;20380;-83
2023/04/17 06:54:08;;;;;;;4.82;3.38;;;;;;;;;;12968565;22;20432;-83
2023/04/17 06:59:12;;;;;;;4.07;3.20;;;;;;;;;;12972283;22;20436;-83
2023/04/17 07:04:14;;;;;;;4.82;3.47;;;;;;;;;;12975452;22;20453;-83
2023/04/17 07:09:16;;;;;;;5.80;3.20;;;;;;;;;;12977118;22;20391;-83
2023/04/17 07:14:19;;;;;;;4.37;3.10;;;;;;;;;;12981195;22;20382;-83
2023/04/17 07:19:21;;;;;;;4.50;3.30;;;;;;;;;;12981143;22;20849;-83
2023/04/17 07:24:23;;;;;;;3.90;3.45;;;;;;;;;;12981119;22;21169;-82
2023/04/17 07:29:26;;;;;;;3.70;2.90;;;;;;;;;;12981878;22;20370;-83
2023/04/17 07:34:30;;;;;;;5.17;2.90;;;;;;;;;;12982258;22;20393;-83
2023/04/17 07:39:32;;;;;;;3.88;2.85;;;;;;;;;;12981770;22;20369;-83
2023/04/17 07:44:35;;;;;;;4.32;2.58;;;;;;;;;;12981061;22;20448;-83
2023/04/17 07:49:38;;;;;;;4.20;2.55;;;;;;;;;;12981572;22;20384;-83
2023/04/17 07:54:40;;;;;;;5.17;2.70;;;;;;;;;;12980527;22;20711;-83
2023/04/17 07:59:43;;;;;;;8.20;2.97;;;;;;;;;;12981291;22;20355;-83
2023/04/17 08:04:45;;;;;;;3.90;2.22;;;;;;;;;;12981311;22;20362;-83
2023/04/17 08:09:47;;;;;;;3.50;2.10;;;;;;;;;;12979882;22;20518;-82
2023/04/17 08:14:50;;;;;;;8.48;5.13;;;;;;;;;;12980109;22;20706;-83
2023/04/17 08:19:53;;;;;;;3.90;2.70;;;;;;;;;;12981000;22;20362;-83
2023/04/17 08:24:57;;;;;;;3.50;2.15;;;;;;;;;;12980855;22;20370;-82
2023/04/17 08:30:00;;;;;;;6.07;2.85;;;;;;;;;;12980484;22;20355;-82
2023/04/17 08:35:02;;;;;;;11.93;3.85;;;;;;;;;;12980684;22;20386;-82
2023/04/17 08:40:08;;;;;;;4.28;2.80;;;;;;;;;;12979691;22;20362;-83
2023/04/17 08:45:12;;;;;;;2.47;2.20;;;;;;;;;;12979676;22;20374;-83
2023/04/17 08:50:16;;;;;;;3.15;1.98;;;;;;;;;;12973024;22;20361;-82
2023/04/17 08:55:20;;;;;;;3.28;2.20;;;;;;;;;;12972427;22;20850;-82
2023/04/17 09:00:28;;;;;;;12.93;3.60;;;;;;;;;;12972966;22;20363;-83
2023/04/17 09:05:32;;;;;;;4.05;2.60;;;;;;;;;;12973115;22;20830;-82
2023/04/17 09:10:38;;;;;;;8.65;3.85;;;;;;;;;;12973433;22;20375;-83
2023/04/17 09:15:42;;;;;;;3.13;2.10;;;;;;;;;;12977148;22;20488;-83
2023/04/17 09:20:50;;;;;;;1.80;1.50;;;;;;;;;;12978033;22;20453;-83
2023/04/17 09:26:07;;;;;;;3.13;1.90;;;;;;;;;;12976830;22;20875;-82
2023/04/17 09:47:06;;;;;;;1.83;1.33;;;;;;;;;;10495937;27;20390;-82
2023/04/17 09:52:08;;;;;;;6.00;1.40;;;;;;;;;;10457153;28;20507;-82
2023/04/17 09:57:11;;;;;;;7.27;2.10;;;;;;;;;;10458900;28;20470;-81
2023/04/17 10:02:16;;;;;;;9.90;1.60;;;;;;;;;;10457275;28;20404;-82
2023/04/17 10:07:18;;;;;;;5.30;1.70;;;;;;;;;;10450539;28;20396;-81
2023/04/17 10:12:21;;;;;;;0.80;0.70;;;;;;;;;;10448936;28;20434;-82
2023/04/17 10:17:30;;;;;;;1.70;0.82;;;;;;;;;;10448590;28;20454;-81
2023/04/17 10:22:33;;;;;;;0.80;0.80;;;;;;;;;;10451493;28;20459;-82
2023/04/17 10:27:46;;;;;;;1.00;0.80;;;;;;;;;;10447619;28;20421;-82
2023/04/17 10:33:25;;;;;;;1.77;0.95;;;;;;;;;;10448053;28;20436;-81
2023/04/17 10:38:34;;;;;;;4.50;1.10;;;;;;;;;;10448420;28;20413;-81
2023/04/17 10:43:41;;;;;;;1.48;0.95;;;;;;;;;;10448095;28;20417;-81
2023/04/17 10:48:50;;;;;;;0.82;0.60;;;;;;;;;;10429324;28;20423;-83
2023/04/17 10:53:56;;;;;;;1.45;0.90;;;;;;;;;;10429967;28;20422;-81
2023/04/17 10:58:59;;;;;;;1.48;1.00;;;;;;;;;;10426893;28;20412;-81
2023/04/17 11:04:03;;;;;;;1.70;1.00;;;;;;;;;;10428241;28;20431;-83
2023/04/17 11:09:08;;;;;;;1.60;1.20;;;;;;;;;;10429363;28;20908;-83
2023/04/17 11:14:11;;;;;;;1.73;1.23;;;;;;;;;;10428935;28;20912;-81
2023/04/17 11:19:18;;;;;;;1.73;1.30;;;;;;;;;;10428253;28;20932;-81
2023/04/17 11:24:23;;;;;;;1.50;1.40;;;;;;;;;;10426313;28;20523;-81
2023/04/17 11:29:26;;;;;;;1.70;1.30;;;;;;;;;;10429747;28;20467;-82
2023/04/17 11:34:30;;;;;;;3.47;2.13;;;;;;;;;;10423639;28;20465;-83
2023/04/17 11:39:34;;;;;;;2.95;2.00;;;;;;;;;;10422923;28;20435;-84
2023/04/17 11:44:36;;;;;;;1.80;1.37;;;;;;;;;;10417933;28;20408;-84
2023/04/17 11:49:39;;;;;;;2.30;1.60;;;;;;;;;;10420565;28;20924;-84
2023/04/17 11:54:41;;;;;;;2.67;1.75;;;;;;;;;;10415914;28;20435;-84
2023/04/17 11:59:44;;;;;;;1.70;1.50;;;;;;;;;;10412226;28;20467;-84
2023/04/17 12:04:47;;;;;;;1.60;1.50;;;;;;;;;;10420579;28;20399;-83
2023/04/17 12:09:55;;;;;;;3.70;2.35;;;;;;;;;;10418235;28;20412;-83
2023/04/17 12:14:57;;;;;;;2.85;1.73;;;;;;;;;;10417572;28;20425;-83
2023/04/17 12:20:02;;;;;;;4.25;1.60;;;;;;;;;;10418432;28;20419;-83
2023/04/17 12:25:06;;;;;;;10.50;2.03;;;;;;;;;;10417755;28;20500;-83
2023/04/17 12:30:09;;;;;;;2.80;2.00;;;;;;;;;;10418158;28;20408;-83
2023/04/17 12:35:12;;;;;;;2.23;1.70;;;;;;;;;;10412866;28;20432;-83
2023/04/17 12:40:15;;;;;;;2.08;1.50;;;;;;;;;;10411917;28;20413;-83
2023/04/17 12:45:18;;;;;;;2.13;1.90;;;;;;;;;;10417792;28;20483;-83
2023/04/17 12:50:21;;;;;;;3.45;2.70;;;;;;;;;;10424858;28;20479;-83
2023/04/17 12:55:24;;;;;;;3.67;2.55;;;;;;;;;;10423585;28;20914;-83
2023/04/17 13:00:26;;;;;;;5.17;2.80;;;;;;;;;;10423468;28;20404;-83
2023/04/17 13:05:30;;;;;;;4.03;2.60;;;;;;;;;;10420818;28;21088;-83
2023/04/17 13:10:33;;;;;;;4.18;2.80;;;;;;;;;;10419664;28;20500;-82
2023/04/17 13:15:35;;;;;;;3.38;2.38;;;;;;;;;;10421247;28;20528;-83
2023/04/17 13:20:38;;;;;;;3.17;2.67;;;;;;;;;;10417959;28;20492;-84
2023/04/17 13:25:40;;;;;;;3.75;2.42;;;;;;;;;;10422809;28;20898;-83
2023/04/17 13:30:42;;;;;;;4.20;2.85;;;;;;;;;;10419812;28;20413;-83
2023/04/17 13:35:46;;;;;;;3.53;2.50;;;;;;;;;;10421739;28;20439;-83
2023/04/17 13:40:48;;;;;;;5.90;3.17;;;;;;;;;;10409375;28;20840;-83
2023/04/17 13:45:51;;;;;;;4.45;2.65;;;;;;;;;;10415746;28;20487;-82
2023/04/17 13:50:55;;;;;;;3.23;2.50;;;;;;;;;;10431348;28;20415;-83
2023/04/17 13:55:57;;;;;;;5.97;3.20;;;;;;;;;;10428331;28;20429;-83
2023/04/17 14:00:59;;;;;;;4.45;2.72;;;;;;;;;;10419947;28;20464;-83
2023/04/17 14:06:02;;;;;;;9.33;2.90;;;;;;;;;;10423023;28;20419;-83
2023/04/17 14:11:04;;;;;;;13.32;3.65;;;;;;;;;;10422495;28;20405;-83
2023/04/17 14:16:06;;;;;;;6.90;3.67;;;;;;;;;;10418732;28;20507;-83
2023/04/17 14:21:10;;;;;;;4.40;3.17;;;;;;;;;;10422431;28;20862;-83
2023/04/17 14:26:12;;;;;;;6.43;2.80;;;;;;;;;;10429694;28;20417;-83
2023/04/17 14:31:14;;;;;;;3.30;2.47;;;;;;;;;;10431773;28;20892;-83
2023/04/17 14:36:17;;;;;;;3.72;2.80;;;;;;;;;;10428406;28;20859;-83
2023/04/17 14:41:19;;;;;;;4.35;2.63;;;;;;;;;;10427123;28;20419;-83
2023/04/17 14:46:21;;;;;;;4.63;3.07;;;;;;;;;;10425302;28;20419;-82
2023/04/17 14:51:25;;;;;;;5.13;3.42;;;;;;;;;;10419203;28;20419;-82
2023/04/17 14:56:27;;;;;;;3.35;2.60;;;;;;;;;;10426245;28;20440;-82
2023/04/17 15:01:29;;;;;;;4.77;3.37;;;;;;;;;;10416588;28;21285;-82
2023/04/17 15:06:32;;;;;;;4.30;3.10;;;;;;;;;;10424402;28;20422;-83
2023/04/17 15:11:35;;;;;;;3.42;2.78;;;;;;;;;;10419599;28;20423;-82
2023/04/17 15:16:39;;;;;;;3.40;2.47;;;;;;;;;;10418651;28;20417;-83
2023/04/17 15:21:43;;;;;;;4.40;2.50;;;;;;;;;;10426057;28;20417;-82
2023/04/17 15:26:45;;;;;;;3.57;2.60;;;;;;;;;;10413922;28;20415;-82
2023/04/17 15:31:47;;;;;;;4.22;2.55;;;;;;;;;;10419407;28;20867;-83
2023/04/17 15:36:51;;;;;;;3.23;2.80;;;;;;;;;;10418604;28;20425;-82
2023/04/17 15:41:58;;;;;;;4.63;2.87;;;;;;;;;;10420613;28;20828;-82
2023/04/17 15:47:00;;;;;;;3.38;3.08;;;;;;;;;;10412631;28;20790;-83
2023/04/17 15:52:03;;;;;;;3.93;2.80;;;;;;;;;;10431340;28;20413;-84
2023/04/17 15:57:05;;;;;;;4.30;3.00;;;;;;;;;;10420123;28;20424;-84
2023/04/17 16:02:07;;;;;;;4.23;3.63;;;;;;;;;;10410152;28;20460;-84
2023/04/17 16:07:12;;;;;;;5.53;3.30;;;;;;;;;;10415822;28;20416;-84
2023/04/17 16:12:14;;;;;;;4.73;3.17;;;;;;;;;;10424140;28;20966;-84
2023/04/17 16:17:18;;;;;;;4.25;3.67;;;;;;;;;;10415914;28;20432;-83
2023/04/17 16:22:21;;;;;;;3.70;3.30;;;;;;;;;;10419495;28;20487;-84
2023/04/17 16:27:23;;;;;;;5.95;3.47;;;;;;;;;;10424794;28;20433;-84
2023/04/17 16:32:25;;;;;;;4.77;3.70;;;;;;;;;;10416879;28;20897;-84
2023/04/17 16:37:28;;;;;;;10.02;5.18;;;;;;;;;;10418631;28;20528;-84
2023/04/17 16:42:30;;;;;;;10.03;5.80;;;;;;;;;;10421150;28;20514;-85
2023/04/17 16:47:32;;;;;;;9.43;5.28;;;;;;;;;;10423324;28;20489;-85
2023/04/17 16:52:37;;;;;;;8.83;6.10;;;;;;;;;;10421653;28;20450;-84
2023/04/17 16:57:41;;;;;;;8.57;6.13;;;;;;;;;;10423811;28;20833;-85
2023/04/17 17:02:43;;;;;;;8.23;5.90;;;;;;;;;;10425426;28;20825;-84
2023/04/17 17:07:47;;;;;;;10.63;6.80;;;;;;;;;;10421334;28;20416;-86
2023/04/17 17:12:50;;;;;;;7.43;5.03;;;;;;;;;;10416795;28;20425;-85
2023/04/17 17:17:52;;;;;;;9.50;5.70;;;;;;;;;;10414329;28;20429;-86
2023/04/17 17:22:55;;;;;;;11.27;7.83;;;;;;;;;;10404471;28;20417;-85
2023/04/17 17:27:57;;;;;;;8.93;6.43;;;;;;;;;;10412779;28;20421;-85
2023/04/17 17:32:59;;;;;;;6.97;5.32;;;;;;;;;;10411748;28;20403;-85
2023/04/17 17:38:02;;;;;;;6.13;5.10;;;;;;;;;;10414056;28;20435;-85
2023/04/17 17:43:05;;;;;;;7.43;4.70;;;;;;;;;;10410850;28;21071;-85
2023/04/17 17:48:08;;;;;;;6.10;5.20;;;;;;;;;;10410901;28;20416;-84
2023/04/17 17:53:12;;;;;;;7.07;4.73;;;;;;;;;;10413019;28;20436;-84
2023/04/17 17:58:15;;;;;;;6.05;4.50;;;;;;;;;;10415620;28;20433;-84
2023/04/17 18:03:17;;;;;;;8.05;5.57;;;;;;;;;;10419762;28;20597;-85
2023/04/17 18:08:24;;;;;;;10.05;6.70;;;;;;;;;;10426118;28;20422;-84
2023/04/17 18:13:26;;;;;;;8.65;5.55;;;;;;;;;;10419467;28;20479;-83
2023/04/17 18:18:28;;;;;;;7.65;4.72;;;;;;;;;;10427054;28;20940;-84
2023/04/17 18:23:31;;;;;;;7.27;5.13;;;;;;;;;;10418719;28;20929;-85
2023/04/17 18:28:33;;;;;;;8.70;5.78;;;;;;;;;;10412442;28;20416;-85
2023/04/17 18:33:41;;;;;;;9.20;5.55;;;;;;;;;;10415611;28;20413;-85
2023/04/17 18:38:45;;;;;;;9.18;6.72;;;;;;;;;;10410011;28;20418;-84
2023/04/17 18:43:47;;;;;;;8.82;6.15;;;;;;;;;;10409405;28;20413;-85
2023/04/17 18:48:49;;;;;;;9.43;7.22;;;;;;;;;;10413368;28;20422;-85
2023/04/17 18:53:55;;;;;;;14.02;8.57;;;;;;;;;;10420584;28;20423;-85
2023/04/17 18:58:57;;;;;;;9.30;6.90;;;;;;;;;;10420712;28;20405;-86
2023/04/17 19:04:00;;;;;;;9.27;5.80;;;;;;;;;;10414239;28;20436;-85
2023/04/17 19:09:03;;;;;;;8.98;5.55;;;;;;;;;;10420600;28;20425;-84
2023/04/17 19:14:05;;;;;;;8.75;5.75;;;;;;;;;;10420282;28;20417;-85
2023/04/17 19:19:09;;;;;;;9.60;6.30;;;;;;;;;;10424987;28;20451;-85
2023/04/17 19:24:12;;;;;;;8.00;5.95;;;;;;;;;;10415157;28;20435;-85
2023/04/17 19:29:16;;;;;;;9.63;6.30;;;;;;;;;;10416354;28;20758;-86
2023/04/17 19:34:17;;;;;;;9.65;6.40;;;;;;;;;;10414174;28;20845;-86
2023/04/17 19:39:21;;;;;;;9.77;6.47;;;;;;;;;;10418172;28;20785;-85
2023/04/17 19:44:23;;;;;;;8.35;6.70;;;;;;;;;;10416099;28;20413;-85
2023/04/17 19:49:25;;;;;;;9.55;6.47;;;;;;;;;;10415764;28;21162;-85
2023/04/17 19:54:30;;;;;;;10.90;6.53;;;;;;;;;;10410237;28;20558;-86
2023/04/17 19:59:32;;;;;;;8.38;6.57;;;;;;;;;;10406890;28;20409;-85
2023/04/17 20:04:34;;;;;;;9.55;6.63;;;;;;;;;;10412491;28;20410;-86
2023/04/17 20:09:37;;;;;;;9.83;7.60;;;;;;;;;;10407296;28;20405;-86
2023/04/17 20:14:39;;;;;;;10.48;6.70;;;;;;;;;;10404439;28;20502;-86
2023/04/17 20:19:40;;;;;;;12.00;8.17;;;;;;;;;;10408230;28;20421;-86
2023/04/17 20:24:43;;;;;;;10.05;7.95;;;;;;;;;;10418587;28;20424;-86
2023/04/17 20:29:45;;;;;;;11.20;7.70;;;;;;;;;;10420544;28;20425;-86
2023/04/17 20:34:47;;;;;;;11.97;8.53;;;;;;;;;;10415552;28;20461;-86
2023/04/17 20:39:51;;;;;;;10.95;8.32;;;;;;;;;;10427193;28;20412;-86
2023/04/17 20:44:54;;;;;;;11.30;8.65;;;;;;;;;;10423721;28;20781;-86
2023/04/17 20:49:55;;;;;;;12.67;8.77;;;;;;;;;;10425505;28;20411;-87
2023/04/17 20:54:59;;;;;;;12.02;9.40;;;;;;;;;;10427623;28;20447;-86
2023/04/17 21:00:02;;;;;;;11.75;9.00;;;;;;;;;;10421661;28;20412;-86
2023/04/17 21:05:05;;;;;;;12.57;9.15;;;;;;;;;;10421942;28;20443;-86
2023/04/17 21:10:08;;;;;;;15.43;10.23;;;;;;;;;;10418089;28;20421;-87
2023/04/17 21:15:11;;;;;;;15.93;10.40;;;;;;;;;;10403443;28;20429;-86
2023/04/17 21:20:13;;;;;;;15.93;10.93;;;;;;;;;;10404801;28;20425;-86
2023/04/17 21:25:16;;;;;;;16.30;10.95;;;;;;;;;;10403540;28;20452;-85
2023/04/17 21:35:47;;;;;;;18.70;13.15;;;;;;;;;;10407887;28;20422;-87
2023/04/17 21:40:50;;;;;;;16.58;12.43;;;;;;;;;;10427262;28;20491;-87
2023/04/17 21:45:55;;;;;;;17.73;12.83;;;;;;;;;;10414722;28;20427;-87
2023/04/17 21:51:02;;;;;;;16.85;12.52;;;;;;;;;;10418012;28;20397;-87
2023/04/17 21:56:06;;;;;;;17.85;12.60;;;;;;;;;;10423716;28;20434;-86
2023/04/17 22:01:08;;;;;;;14.60;11.90;;;;;;;;;;10420148;28;20797;-87
2023/04/17 22:06:09;;;;;;;16.15;12.00;;;;;;;;;;10421160;28;20409;-87
2023/04/17 22:11:13;;;;;;;14.70;11.38;;;;;;;;;;10422586;28;20433;-87
2023/04/17 22:16:14;;;;;;;12.95;10.63;;;;;;;;;;10423489;28;20429;-87
2023/04/17 22:27:14;;;;;;;13.45;9.23;;;;;;;;;;10421265;28;20378;-87
2023/04/17 22:43:33;;;;;;;12.13;7.35;;;;;;;;;;10427645;28;20411;-87
2023/04/17 22:48:34;;;;;;;10.15;7.45;;;;;;;;;;10429593;28;20409;-87
2023/04/17 22:53:36;;;;;;;11.68;7.93;;;;;;;;;;10431040;28;20400;-86
2023/04/17 22:58:40;;;;;;;10.63;7.50;;;;;;;;;;10428019;28;20979;-87
2023/04/17 23:03:41;;;;;;;9.77;7.13;;;;;;;;;;10428881;28;20408;-87
2023/04/17 23:08:43;;;;;;;12.07;7.90;;;;;;;;;;10432721;28;20450;-87
2023/04/17 23:13:47;;;;;;;10.27;7.35;;;;;;;;;;10430975;28;20406;-87
2023/04/17 23:18:49;;;;;;;8.60;6.13;;;;;;;;;;10426593;28;20487;-87
2023/04/17 23:23:51;;;;;;;8.98;6.50;;;;;;;;;;10426048;28;20405;-87
2023/04/17 23:28:55;;;;;;;8.38;6.63;;;;;;;;;;10426783;28;20832;-87
2023/04/17 23:33:57;;;;;;;7.50;6.40;;;;;;;;;;10426827;28;20815;-87
2023/04/17 23:38:59;;;;;;;6.90;5.87;;;;;;;;;;10425463;28;20506;-87
2023/04/17 23:44:03;;;;;;;8.38;5.70;;;;;;;;;;10424582;28;20418;-87
2023/04/17 23:49:05;;;;;;;8.18;6.00;;;;;;;;;;10426750;28;20416;-87
2023/04/17 23:54:07;;;;;;;7.38;5.47;;;;;;;;;;10425058;28;20436;-87
2023/04/17 23:59:11;;;;;;;8.27;5.60;;;;;;;;;;10426553;28;20468;-87
